sensor_id;sensor_type;location;lat;lon;timestamp;P1;durP1;ratioP1;P2;durP2;ratioP2
351;SDS011;164;50.784;6.496;2023-06-19T00:01:15;4.80;;;4.50;;
351;SDS011;164;50.784;6.496;2023-06-19T00:03:42;4.75;;;4.45;;
351;SDS011;164;50.784;6.496;2023-06-19T00:06:09;4.95;;;4.65;;
351;SDS011;164;50.784;6.496;2023-06-19T00:08:38;4.85;;;4.55;;
351;SDS011;164;50.784;6.496;2023-06-19T00:11:06;5.20;;;4.63;;
351;SDS011;164;50.784;6.496;2023-06-19T00:13:33;5.07;;;4.78;;
351;SDS011;164;50.784;6.496;2023-06-19T00:16:00;6.03;;;5.72;;
351;SDS011;164;50.784;6.496;2023-06-19T00:18:30;5.88;;;4.70;;
351;SDS011;164;50.784;6.496;2023-06-19T00:21:05;5.22;;;4.93;;
351;SDS011;164;50.784;6.496;2023-06-19T00:23:32;4.97;;;4.68;;
351;SDS011;164;50.784;6.496;2023-06-19T00:26:00;4.82;;;4.53;;
351;SDS011;164;50.784;6.496;2023-06-19T00:28:28;5.15;;;4.85;;
351;SDS011;164;50.784;6.496;2023-06-19T00:30:55;4.45;;;4.15;;
351;SDS011;164;50.784;6.496;2023-06-19T00:33:23;5.53;;;5.22;;
351;SDS011;164;50.784;6.496;2023-06-19T00:35:51;5.47;;;5.18;;
351;SDS011;164;50.784;6.496;2023-06-19T00:38:19;5.15;;;4.82;;
351;SDS011;164;50.784;6.496;2023-06-19T00:40:46;5.20;;;4.90;;
351;SDS011;164;50.784;6.496;2023-06-19T00:43:13;4.53;;;4.22;;
351;SDS011;164;50.784;6.496;2023-06-19T00:45:41;4.45;;;4.15;;
351;SDS011;164;50.784;6.496;2023-06-19T00:48:08;5.97;;;5.68;;
351;SDS011;164;50.784;6.496;2023-06-19T00:50:35;5.80;;;5.50;;
351;SDS011;164;50.784;6.496;2023-06-19T00:53:04;6.05;;;5.75;;
351;SDS011;164;50.784;6.496;2023-06-19T00:55:33;5.00;;;4.70;;
351;SDS011;164;50.784;6.496;2023-06-19T00:58:00;4.65;;;4.35;;
351;SDS011;164;50.784;6.496;2023-06-19T01:00:27;6.13;;;5.82;;
351;SDS011;164;50.784;6.496;2023-06-19T01:02:55;5.25;;;4.95;;
351;SDS011;164;50.784;6.496;2023-06-19T01:05:22;5.25;;;4.95;;
351;SDS011;164;50.784;6.496;2023-06-19T01:07:52;5.20;;;4.90;;
351;SDS011;164;50.784;6.496;2023-06-19T01:10:25;5.07;;;4.78;;
351;SDS011;164;50.784;6.496;2023-06-19T01:12:56;5.85;;;5.55;;
351;SDS011;164;50.784;6.496;2023-06-19T01:15:23;5.40;;;5.10;;
351;SDS011;164;50.784;6.496;2023-06-19T01:17:53;5.28;;;4.97;;
351;SDS011;164;50.784;6.496;2023-06-19T01:20:21;6.03;;;5.05;;
351;SDS011;164;50.784;6.496;2023-06-19T01:22:49;5.72;;;5.43;;
351;SDS011;164;50.784;6.496;2023-06-19T01:25:16;6.30;;;5.95;;
351;SDS011;164;50.784;6.496;2023-06-19T01:27:43;6.47;;;6.10;;
351;SDS011;164;50.784;6.496;2023-06-19T01:30:12;4.85;;;4.55;;
351;SDS011;164;50.784;6.496;2023-06-19T01:32:41;5.35;;;5.05;;
351;SDS011;164;50.784;6.496;2023-06-19T01:35:10;5.05;;;4.75;;
351;SDS011;164;50.784;6.496;2023-06-19T01:37:38;5.65;;;5.35;;
351;SDS011;164;50.784;6.496;2023-06-19T01:40:09;6.10;;;5.80;;
351;SDS011;164;50.784;6.496;2023-06-19T01:42:37;5.93;;;5.63;;
351;SDS011;164;50.784;6.496;2023-06-19T01:45:05;5.80;;;5.50;;
351;SDS011;164;50.784;6.496;2023-06-19T01:47:33;5.40;;;5.10;;
351;SDS011;164;50.784;6.496;2023-06-19T01:50:00;6.10;;;5.38;;
351;SDS011;164;50.784;6.496;2023-06-19T01:52:28;6.18;;;5.85;;
351;SDS011;164;50.784;6.496;2023-06-19T01:54:55;5.93;;;5.63;;
351;SDS011;164;50.784;6.496;2023-06-19T01:57:23;5.70;;;5.40;;
351;SDS011;164;50.784;6.496;2023-06-19T01:59:51;5.30;;;5.00;;
351;SDS011;164;50.784;6.496;2023-06-19T02:02:18;6.10;;;5.80;;
351;SDS011;164;50.784;6.496;2023-06-19T02:04:45;6.05;;;5.75;;
351;SDS011;164;50.784;6.496;2023-06-19T02:07:12;6.10;;;5.80;;
351;SDS011;164;50.784;6.496;2023-06-19T02:09:40;6.15;;;5.82;;
351;SDS011;164;50.784;6.496;2023-06-19T02:12:08;6.75;;;6.35;;
351;SDS011;164;50.784;6.496;2023-06-19T02:14:36;6.43;;;6.03;;
351;SDS011;164;50.784;6.496;2023-06-19T02:17:03;5.75;;;5.45;;
351;SDS011;164;50.784;6.496;2023-06-19T02:19:31;6.07;;;5.78;;
351;SDS011;164;50.784;6.496;2023-06-19T02:21:58;5.75;;;5.45;;
351;SDS011;164;50.784;6.496;2023-06-19T02:24:25;7.50;;;5.70;;
351;SDS011;164;50.784;6.496;2023-06-19T02:26:52;5.82;;;5.53;;
351;SDS011;164;50.784;6.496;2023-06-19T02:29:20;4.80;;;4.50;;
351;SDS011;164;50.784;6.496;2023-06-19T02:31:48;5.60;;;5.30;;
351;SDS011;164;50.784;6.496;2023-06-19T02:34:15;5.40;;;5.10;;
351;SDS011;164;50.784;6.496;2023-06-19T02:36:43;5.57;;;5.28;;
351;SDS011;164;50.784;6.496;2023-06-19T02:39:12;6.53;;;6.13;;
351;SDS011;164;50.784;6.496;2023-06-19T02:41:40;5.90;;;5.60;;
351;SDS011;164;50.784;6.496;2023-06-19T02:44:10;6.20;;;5.82;;
351;SDS011;164;50.784;6.496;2023-06-19T02:46:38;6.28;;;5.93;;
351;SDS011;164;50.784;6.496;2023-06-19T02:49:06;6.72;;;6.40;;
351;SDS011;164;50.784;6.496;2023-06-19T02:51:33;6.65;;;6.25;;
351;SDS011;164;50.784;6.496;2023-06-19T02:54:01;5.75;;;5.45;;
351;SDS011;164;50.784;6.496;2023-06-19T02:56:28;7.10;;;6.70;;
351;SDS011;164;50.784;6.496;2023-06-19T02:58:55;7.03;;;6.63;;
351;SDS011;164;50.784;6.496;2023-06-19T03:01:23;6.70;;;6.30;;
351;SDS011;164;50.784;6.496;2023-06-19T03:03:50;5.82;;;5.53;;
351;SDS011;164;50.784;6.496;2023-06-19T03:06:19;6.30;;;5.95;;
351;SDS011;164;50.784;6.496;2023-06-19T03:08:46;7.10;;;6.70;;
351;SDS011;164;50.784;6.496;2023-06-19T03:11:14;5.70;;;5.40;;
351;SDS011;164;50.784;6.496;2023-06-19T03:13:45;5.70;;;5.40;;
351;SDS011;164;50.784;6.496;2023-06-19T03:16:12;6.15;;;5.82;;
351;SDS011;164;50.784;6.496;2023-06-19T03:18:40;5.47;;;5.18;;
351;SDS011;164;50.784;6.496;2023-06-19T03:21:07;4.97;;;4.68;;
351;SDS011;164;50.784;6.496;2023-06-19T03:23:38;5.00;;;4.70;;
351;SDS011;164;50.784;6.496;2023-06-19T03:26:06;5.00;;;4.70;;
351;SDS011;164;50.784;6.496;2023-06-19T03:28:33;4.95;;;4.65;;
351;SDS011;164;50.784;6.496;2023-06-19T03:31:00;4.63;;;4.32;;
351;SDS011;164;50.784;6.496;2023-06-19T03:33:28;6.53;;;4.72;;
351;SDS011;164;50.784;6.496;2023-06-19T03:35:55;4.60;;;4.30;;
351;SDS011;164;50.784;6.496;2023-06-19T03:38:22;4.88;;;4.57;;
351;SDS011;164;50.784;6.496;2023-06-19T03:40:51;4.90;;;4.60;;
351;SDS011;164;50.784;6.496;2023-06-19T03:43:20;4.95;;;4.65;;
351;SDS011;164;50.784;6.496;2023-06-19T03:45:47;4.95;;;4.65;;
351;SDS011;164;50.784;6.496;2023-06-19T03:48:15;5.10;;;4.80;;
351;SDS011;164;50.784;6.496;2023-06-19T03:50:42;5.05;;;4.75;;
351;SDS011;164;50.784;6.496;2023-06-19T03:53:09;4.47;;;4.15;;
351;SDS011;164;50.784;6.496;2023-06-19T03:55:36;4.88;;;4.57;;
351;SDS011;164;50.784;6.496;2023-06-19T03:58:05;4.95;;;4.65;;
351;SDS011;164;50.784;6.496;2023-06-19T04:00:32;5.05;;;4.75;;
351;SDS011;164;50.784;6.496;2023-06-19T04:02:59;5.63;;;5.32;;
351;SDS011;164;50.784;6.496;2023-06-19T04:05:27;4.70;;;4.40;;
351;SDS011;164;50.784;6.496;2023-06-19T04:07:54;5.03;;;4.65;;
351;SDS011;164;50.784;6.496;2023-06-19T04:10:21;5.20;;;4.90;;
351;SDS011;164;50.784;6.496;2023-06-19T04:12:48;3.95;;;3.75;;
351;SDS011;164;50.784;6.496;2023-06-19T04:15:17;5.45;;;4.07;;
351;SDS011;164;50.784;6.496;2023-06-19T04:17:44;4.65;;;4.35;;
351;SDS011;164;50.784;6.496;2023-06-19T04:20:12;4.93;;;4.63;;
351;SDS011;164;50.784;6.496;2023-06-19T04:22:39;4.72;;;4.43;;
351;SDS011;164;50.784;6.496;2023-06-19T04:25:07;4.80;;;4.50;;
351;SDS011;164;50.784;6.496;2023-06-19T04:27:35;4.72;;;4.43;;
351;SDS011;164;50.784;6.496;2023-06-19T04:30:03;4.65;;;4.35;;
351;SDS011;164;50.784;6.496;2023-06-19T04:32:32;4.40;;;4.10;;
351;SDS011;164;50.784;6.496;2023-06-19T04:35:00;4.35;;;4.05;;
351;SDS011;164;50.784;6.496;2023-06-19T04:37:27;4.68;;;4.38;;
351;SDS011;164;50.784;6.496;2023-06-19T04:39:54;4.85;;;4.55;;
351;SDS011;164;50.784;6.496;2023-06-19T04:42:22;4.50;;;4.20;;
351;SDS011;164;50.784;6.496;2023-06-19T04:44:50;3.20;;;3.00;;
351;SDS011;164;50.784;6.496;2023-06-19T04:47:18;4.00;;;3.83;;
351;SDS011;164;50.784;6.496;2023-06-19T04:49:46;4.10;;;3.90;;
351;SDS011;164;50.784;6.496;2023-06-19T04:52:13;3.67;;;3.47;;
351;SDS011;164;50.784;6.496;2023-06-19T04:54:41;7.53;;;4.13;;
351;SDS011;164;50.784;6.496;2023-06-19T04:57:08;3.53;;;2.97;;
351;SDS011;164;50.784;6.496;2023-06-19T04:59:35;3.22;;;2.90;;
351;SDS011;164;50.784;6.496;2023-06-19T05:02:03;3.75;;;3.28;;
351;SDS011;164;50.784;6.496;2023-06-19T05:04:32;3.38;;;3.17;;
351;SDS011;164;50.784;6.496;2023-06-19T05:07:00;3.33;;;3.13;;
351;SDS011;164;50.784;6.496;2023-06-19T05:09:28;3.40;;;3.20;;
351;SDS011;164;50.784;6.496;2023-06-19T05:11:56;2.85;;;2.70;;
351;SDS011;164;50.784;6.496;2023-06-19T05:14:23;4.03;;;3.28;;
351;SDS011;164;50.784;6.496;2023-06-19T05:16:51;3.30;;;3.00;;
351;SDS011;164;50.784;6.496;2023-06-19T05:19:18;3.08;;;2.88;;
351;SDS011;164;50.784;6.496;2023-06-19T05:21:45;2.70;;;2.50;;
351;SDS011;164;50.784;6.496;2023-06-19T05:24:14;2.95;;;2.78;;
351;SDS011;164;50.784;6.496;2023-06-19T05:26:41;3.22;;;3.03;;
351;SDS011;164;50.784;6.496;2023-06-19T05:29:08;2.80;;;2.60;;
351;SDS011;164;50.784;6.496;2023-06-19T05:31:36;3.03;;;2.83;;
351;SDS011;164;50.784;6.496;2023-06-19T05:34:03;3.10;;;2.72;;
351;SDS011;164;50.784;6.496;2023-06-19T05:36:30;2.97;;;2.60;;
351;SDS011;164;50.784;6.496;2023-06-19T05:38:57;2.78;;;2.58;;
351;SDS011;164;50.784;6.496;2023-06-19T05:41:26;2.28;;;2.08;;
351;SDS011;164;50.784;6.496;2023-06-19T05:43:53;2.92;;;2.40;;
351;SDS011;164;50.784;6.496;2023-06-19T05:46:20;3.25;;;2.78;;
351;SDS011;164;50.784;6.496;2023-06-19T05:48:47;2.22;;;1.90;;
351;SDS011;164;50.784;6.496;2023-06-19T05:51:15;2.80;;;1.75;;
351;SDS011;164;50.784;6.496;2023-06-19T05:53:42;4.65;;;2.10;;
351;SDS011;164;50.784;6.496;2023-06-19T05:56:10;4.30;;;1.63;;
351;SDS011;164;50.784;6.496;2023-06-19T05:58:39;2.70;;;1.83;;
351;SDS011;164;50.784;6.496;2023-06-19T06:01:06;2.15;;;1.45;;
351;SDS011;164;50.784;6.496;2023-06-19T06:03:34;3.85;;;1.90;;
351;SDS011;164;50.784;6.496;2023-06-19T06:06:01;2.35;;;1.80;;
351;SDS011;164;50.784;6.496;2023-06-19T06:08:29;1.42;;;1.38;;
351;SDS011;164;50.784;6.496;2023-06-19T06:10:56;3.45;;;1.92;;
351;SDS011;164;50.784;6.496;2023-06-19T06:13:23;1.98;;;1.40;;
351;SDS011;164;50.784;6.496;2023-06-19T06:15:52;2.75;;;1.65;;
351;SDS011;164;50.784;6.496;2023-06-19T06:18:20;1.45;;;1.20;;
351;SDS011;164;50.784;6.496;2023-06-19T06:20:47;1.70;;;1.60;;
351;SDS011;164;50.784;6.496;2023-06-19T06:23:14;1.20;;;1.10;;
351;SDS011;164;50.784;6.496;2023-06-19T06:25:41;1.15;;;1.15;;
351;SDS011;164;50.784;6.496;2023-06-19T06:28:10;3.80;;;1.50;;
351;SDS011;164;50.784;6.496;2023-06-19T06:30:37;4.25;;;1.17;;
351;SDS011;164;50.784;6.496;2023-06-19T06:33:06;2.80;;;1.20;;
351;SDS011;164;50.784;6.496;2023-06-19T06:35:33;2.30;;;1.00;;
351;SDS011;164;50.784;6.496;2023-06-19T06:38:01;1.45;;;1.38;;
351;SDS011;164;50.784;6.496;2023-06-19T06:40:28;1.67;;;1.60;;
351;SDS011;164;50.784;6.496;2023-06-19T06:42:56;1.45;;;1.30;;
351;SDS011;164;50.784;6.496;2023-06-19T06:45:23;1.67;;;1.63;;
351;SDS011;164;50.784;6.496;2023-06-19T06:47:50;1.75;;;1.38;;
351;SDS011;164;50.784;6.496;2023-06-19T06:50:19;2.70;;;2.33;;
351;SDS011;164;50.784;6.496;2023-06-19T06:52:46;1.42;;;1.25;;
351;SDS011;164;50.784;6.496;2023-06-19T06:55:13;2.53;;;1.63;;
351;SDS011;164;50.784;6.496;2023-06-19T06:57:40;1.52;;;1.48;;
351;SDS011;164;50.784;6.496;2023-06-19T07:00:08;1.60;;;1.50;;
351;SDS011;164;50.784;6.496;2023-06-19T07:02:37;1.10;;;1.02;;
351;SDS011;164;50.784;6.496;2023-06-19T07:05:06;3.58;;;1.90;;
351;SDS011;164;50.784;6.496;2023-06-19T07:07:35;1.95;;;1.55;;
351;SDS011;164;50.784;6.496;2023-06-19T07:10:02;1.35;;;1.25;;
351;SDS011;164;50.784;6.496;2023-06-19T07:12:29;1.20;;;1.20;;
351;SDS011;164;50.784;6.496;2023-06-19T07:14:56;1.42;;;1.38;;
351;SDS011;164;50.784;6.496;2023-06-19T07:17:24;1.50;;;1.40;;
351;SDS011;164;50.784;6.496;2023-06-19T07:19:51;1.42;;;1.33;;
351;SDS011;164;50.784;6.496;2023-06-19T07:22:18;1.92;;;1.85;;
351;SDS011;164;50.784;6.496;2023-06-19T07:24:47;2.75;;;1.20;;
351;SDS011;164;50.784;6.496;2023-06-19T07:27:14;1.60;;;1.50;;
351;SDS011;164;50.784;6.496;2023-06-19T07:29:41;1.75;;;1.75;;
351;SDS011;164;50.784;6.496;2023-06-19T07:32:08;2.10;;;1.55;;
351;SDS011;164;50.784;6.496;2023-06-19T07:34:36;2.42;;;2.25;;
351;SDS011;164;50.784;6.496;2023-06-19T07:37:03;2.70;;;2.10;;
351;SDS011;164;50.784;6.496;2023-06-19T07:39:30;2.15;;;1.83;;
351;SDS011;164;50.784;6.496;2023-06-19T07:41:59;2.20;;;1.80;;
351;SDS011;164;50.784;6.496;2023-06-19T07:44:26;2.03;;;1.73;;
351;SDS011;164;50.784;6.496;2023-06-19T07:46:53;3.65;;;2.10;;
351;SDS011;164;50.784;6.496;2023-06-19T07:49:20;2.47;;;2.28;;
351;SDS011;164;50.784;6.496;2023-06-19T07:51:48;2.55;;;2.15;;
351;SDS011;164;50.784;6.496;2023-06-19T07:54:15;5.07;;;2.58;;
351;SDS011;164;50.784;6.496;2023-06-19T07:56:42;3.05;;;2.05;;
351;SDS011;164;50.784;6.496;2023-06-19T07:59:12;2.50;;;2.15;;
351;SDS011;164;50.784;6.496;2023-06-19T08:01:40;2.70;;;2.53;;
351;SDS011;164;50.784;6.496;2023-06-19T08:04:07;3.03;;;2.28;;
351;SDS011;164;50.784;6.496;2023-06-19T08:06:34;2.50;;;2.30;;
351;SDS011;164;50.784;6.496;2023-06-19T08:09:01;4.55;;;2.58;;
351;SDS011;164;50.784;6.496;2023-06-19T08:11:28;2.80;;;1.98;;
351;SDS011;164;50.784;6.496;2023-06-19T08:13:56;2.25;;;2.13;;
351;SDS011;164;50.784;6.496;2023-06-19T08:16:25;4.15;;;2.13;;
351;SDS011;164;50.784;6.496;2023-06-19T08:18:53;2.78;;;2.50;;
351;SDS011;164;50.784;6.496;2023-06-19T08:21:20;2.63;;;2.38;;
351;SDS011;164;50.784;6.496;2023-06-19T08:23:47;2.47;;;2.17;;
351;SDS011;164;50.784;6.496;2023-06-19T08:26:14;2.50;;;2.30;;
351;SDS011;164;50.784;6.496;2023-06-19T08:28:43;4.28;;;2.85;;
351;SDS011;164;50.784;6.496;2023-06-19T08:31:10;2.60;;;2.40;;
351;SDS011;164;50.784;6.496;2023-06-19T08:33:38;3.78;;;3.00;;
351;SDS011;164;50.784;6.496;2023-06-19T08:36:06;3.10;;;2.90;;
351;SDS011;164;50.784;6.496;2023-06-19T08:38:33;2.97;;;2.78;;
351;SDS011;164;50.784;6.496;2023-06-19T08:41:00;2.75;;;2.55;;
351;SDS011;164;50.784;6.496;2023-06-19T08:43:28;2.85;;;2.50;;
351;SDS011;164;50.784;6.496;2023-06-19T08:45:58;2.70;;;2.50;;
351;SDS011;164;50.784;6.496;2023-06-19T08:48:28;3.38;;;2.92;;
351;SDS011;164;50.784;6.496;2023-06-19T08:50:57;3.42;;;3.22;;
351;SDS011;164;50.784;6.496;2023-06-19T08:53:24;2.65;;;2.50;;
351;SDS011;164;50.784;6.496;2023-06-19T08:55:51;4.25;;;2.38;;
351;SDS011;164;50.784;6.496;2023-06-19T08:58:21;4.97;;;3.70;;
351;SDS011;164;50.784;6.496;2023-06-19T09:00:49;2.55;;;2.45;;
351;SDS011;164;50.784;6.496;2023-06-19T09:03:19;4.25;;;2.95;;
351;SDS011;164;50.784;6.496;2023-06-19T09:05:46;3.85;;;2.78;;
351;SDS011;164;50.784;6.496;2023-06-19T09:08:17;3.13;;;3.00;;
351;SDS011;164;50.784;6.496;2023-06-19T09:10:53;4.25;;;3.25;;
351;SDS011;164;50.784;6.496;2023-06-19T09:13:20;3.25;;;3.08;;
351;SDS011;164;50.784;6.496;2023-06-19T09:15:48;3.38;;;3.10;;
351;SDS011;164;50.784;6.496;2023-06-19T09:18:15;3.25;;;3.05;;
351;SDS011;164;50.784;6.496;2023-06-19T09:20:43;4.95;;;3.35;;
351;SDS011;164;50.784;6.496;2023-06-19T09:23:11;3.60;;;3.45;;
351;SDS011;164;50.784;6.496;2023-06-19T09:25:47;4.20;;;3.50;;
351;SDS011;164;50.784;6.496;2023-06-19T09:28:21;4.45;;;3.30;;
351;SDS011;164;50.784;6.496;2023-06-19T09:30:52;4.00;;;3.40;;
351;SDS011;164;50.784;6.496;2023-06-19T09:33:19;4.78;;;3.30;;
351;SDS011;164;50.784;6.496;2023-06-19T09:35:47;3.20;;;3.00;;
351;SDS011;164;50.784;6.496;2023-06-19T09:38:16;4.05;;;3.20;;
351;SDS011;164;50.784;6.496;2023-06-19T09:40:44;3.38;;;2.90;;
351;SDS011;164;50.784;6.496;2023-06-19T09:43:14;3.63;;;3.13;;
351;SDS011;164;50.784;6.496;2023-06-19T09:45:43;4.00;;;3.47;;
351;SDS011;164;50.784;6.496;2023-06-19T09:48:11;4.30;;;3.47;;
351;SDS011;164;50.784;6.496;2023-06-19T09:50:41;4.65;;;4.00;;
351;SDS011;164;50.784;6.496;2023-06-19T09:53:09;3.95;;;3.53;;
351;SDS011;164;50.784;6.496;2023-06-19T09:55:36;3.70;;;3.50;;
351;SDS011;164;50.784;6.496;2023-06-19T09:58:05;4.45;;;3.30;;
351;SDS011;164;50.784;6.496;2023-06-19T10:00:34;4.15;;;3.13;;
351;SDS011;164;50.784;6.496;2023-06-19T10:03:02;3.72;;;3.47;;
351;SDS011;164;50.784;6.496;2023-06-19T10:05:30;3.90;;;3.70;;
351;SDS011;164;50.784;6.496;2023-06-19T10:07:58;5.75;;;3.70;;
351;SDS011;164;50.784;6.496;2023-06-19T10:10:27;4.75;;;3.55;;
351;SDS011;164;50.784;6.496;2023-06-19T10:12:55;3.90;;;3.47;;
351;SDS011;164;50.784;6.496;2023-06-19T10:15:23;4.57;;;3.88;;
351;SDS011;164;50.784;6.496;2023-06-19T10:17:52;4.20;;;3.83;;
351;SDS011;164;50.784;6.496;2023-06-19T10:20:22;4.63;;;3.88;;
351;SDS011;164;50.784;6.496;2023-06-19T10:22:56;3.10;;;2.90;;
351;SDS011;164;50.784;6.496;2023-06-19T10:25:23;3.83;;;3.63;;
351;SDS011;164;50.784;6.496;2023-06-19T10:27:51;5.30;;;3.78;;
351;SDS011;164;50.784;6.496;2023-06-19T10:30:19;3.37;;;3.17;;
351;SDS011;164;50.784;6.496;2023-06-19T10:32:47;4.10;;;3.60;;
351;SDS011;164;50.784;6.496;2023-06-19T10:35:16;4.50;;;3.40;;
351;SDS011;164;50.784;6.496;2023-06-19T10:37:46;5.93;;;3.70;;
351;SDS011;164;50.784;6.496;2023-06-19T10:40:14;5.43;;;3.00;;
351;SDS011;164;50.784;6.496;2023-06-19T10:42:41;4.13;;;3.67;;
351;SDS011;164;50.784;6.496;2023-06-19T10:45:09;3.47;;;3.00;;
351;SDS011;164;50.784;6.496;2023-06-19T10:47:39;5.00;;;3.50;;
351;SDS011;164;50.784;6.496;2023-06-19T10:50:09;3.47;;;2.87;;
351;SDS011;164;50.784;6.496;2023-06-19T10:52:40;4.43;;;3.60;;
351;SDS011;164;50.784;6.496;2023-06-19T10:55:08;4.70;;;3.57;;
351;SDS011;164;50.784;6.496;2023-06-19T10:57:36;3.63;;;2.83;;
351;SDS011;164;50.784;6.496;2023-06-19T11:00:04;5.93;;;3.30;;
351;SDS011;164;50.784;6.496;2023-06-19T11:02:36;2.97;;;2.60;;
351;SDS011;164;50.784;6.496;2023-06-19T11:05:06;3.93;;;3.43;;
351;SDS011;164;50.784;6.496;2023-06-19T11:07:33;3.50;;;3.03;;
351;SDS011;164;50.784;6.496;2023-06-19T11:10:02;3.80;;;3.60;;
351;SDS011;164;50.784;6.496;2023-06-19T11:12:30;3.20;;;3.03;;
351;SDS011;164;50.784;6.496;2023-06-19T11:14:58;4.60;;;3.60;;
351;SDS011;164;50.784;6.496;2023-06-19T11:17:25;3.63;;;3.50;;
351;SDS011;164;50.784;6.496;2023-06-19T11:19:53;4.73;;;3.70;;
351;SDS011;164;50.784;6.496;2023-06-19T11:22:34;3.93;;;3.80;;
351;SDS011;164;50.784;6.496;2023-06-19T11:25:04;4.43;;;3.60;;
351;SDS011;164;50.784;6.496;2023-06-19T11:27:32;5.60;;;4.17;;
351;SDS011;164;50.784;6.496;2023-06-19T11:30:00;3.20;;;3.03;;
351;SDS011;164;50.784;6.496;2023-06-19T11:32:30;3.97;;;3.77;;
351;SDS011;164;50.784;6.496;2023-06-19T11:34:57;4.70;;;3.90;;
351;SDS011;164;50.784;6.496;2023-06-19T11:37:32;3.60;;;3.40;;
351;SDS011;164;50.784;6.496;2023-06-19T11:40:00;3.53;;;3.33;;
351;SDS011;164;50.784;6.496;2023-06-19T11:42:31;11.27;;;3.87;;
351;SDS011;164;50.784;6.496;2023-06-19T11:44:59;3.03;;;2.83;;
351;SDS011;164;50.784;6.496;2023-06-19T11:47:29;3.20;;;3.00;;
351;SDS011;164;50.784;6.496;2023-06-19T11:49:56;3.73;;;2.87;;
351;SDS011;164;50.784;6.496;2023-06-19T11:52:24;3.00;;;2.90;;
351;SDS011;164;50.784;6.496;2023-06-19T11:54:51;5.30;;;3.43;;
351;SDS011;164;50.784;6.496;2023-06-19T11:57:19;3.27;;;3.10;;
351;SDS011;164;50.784;6.496;2023-06-19T11:59:47;4.20;;;3.37;;
351;SDS011;164;50.784;6.496;2023-06-19T12:02:15;3.60;;;3.40;;
351;SDS011;164;50.784;6.496;2023-06-19T12:04:42;4.10;;;3.23;;
351;SDS011;164;50.784;6.496;2023-06-19T12:07:09;8.20;;;3.63;;
351;SDS011;164;50.784;6.496;2023-06-19T12:09:37;4.43;;;3.80;;
351;SDS011;164;50.784;6.496;2023-06-19T12:12:04;3.70;;;3.47;;
351;SDS011;164;50.784;6.496;2023-06-19T12:14:32;4.00;;;3.30;;
351;SDS011;164;50.784;6.496;2023-06-19T12:17:01;3.93;;;3.17;;
351;SDS011;164;50.784;6.496;2023-06-19T12:19:28;3.40;;;3.23;;
351;SDS011;164;50.784;6.496;2023-06-19T12:21:56;6.33;;;3.43;;
351;SDS011;164;50.784;6.496;2023-06-19T12:24:24;7.70;;;3.00;;
351;SDS011;164;50.784;6.496;2023-06-19T12:26:51;2.90;;;2.50;;
351;SDS011;164;50.784;6.496;2023-06-19T12:29:18;3.30;;;3.10;;
351;SDS011;164;50.784;6.496;2023-06-19T12:31:47;3.20;;;3.00;;
351;SDS011;164;50.784;6.496;2023-06-19T12:34:15;3.27;;;2.73;;
351;SDS011;164;50.784;6.496;2023-06-19T12:36:43;3.27;;;3.07;;
351;SDS011;164;50.784;6.496;2023-06-19T12:39:11;3.07;;;2.97;;
351;SDS011;164;50.784;6.496;2023-06-19T12:41:41;2.83;;;2.63;;
351;SDS011;164;50.784;6.496;2023-06-19T12:44:09;5.73;;;2.57;;
351;SDS011;164;50.784;6.496;2023-06-19T12:46:36;2.63;;;2.43;;
351;SDS011;164;50.784;6.496;2023-06-19T12:49:04;3.50;;;3.30;;
351;SDS011;164;50.784;6.496;2023-06-19T12:51:33;4.80;;;3.13;;
351;SDS011;164;50.784;6.496;2023-06-19T12:54:00;2.93;;;2.80;;
351;SDS011;164;50.784;6.496;2023-06-19T12:56:28;3.57;;;3.37;;
351;SDS011;164;50.784;6.496;2023-06-19T12:58:55;5.33;;;3.30;;
351;SDS011;164;50.784;6.496;2023-06-19T13:01:22;3.37;;;3.00;;
351;SDS011;164;50.784;6.496;2023-06-19T13:03:50;2.90;;;2.70;;
351;SDS011;164;50.784;6.496;2023-06-19T13:06:17;3.30;;;3.10;;
351;SDS011;164;50.784;6.496;2023-06-19T13:08:46;3.87;;;3.10;;
351;SDS011;164;50.784;6.496;2023-06-19T13:11:13;3.70;;;3.33;;
351;SDS011;164;50.784;6.496;2023-06-19T13:13:41;6.30;;;3.20;;
351;SDS011;164;50.784;6.496;2023-06-19T13:16:08;3.23;;;3.07;;
351;SDS011;164;50.784;6.496;2023-06-19T13:18:42;3.10;;;2.90;;
351;SDS011;164;50.784;6.496;2023-06-19T13:21:11;3.20;;;2.97;;
351;SDS011;164;50.784;6.496;2023-06-19T13:23:43;4.70;;;3.93;;
351;SDS011;164;50.784;6.496;2023-06-19T13:26:21;3.50;;;3.00;;
351;SDS011;164;50.784;6.496;2023-06-19T13:28:48;5.03;;;3.20;;
351;SDS011;164;50.784;6.496;2023-06-19T13:31:16;3.20;;;3.00;;
351;SDS011;164;50.784;6.496;2023-06-19T13:33:43;3.13;;;2.93;;
351;SDS011;164;50.784;6.496;2023-06-19T13:36:11;3.37;;;3.17;;
351;SDS011;164;50.784;6.496;2023-06-19T13:38:38;3.30;;;3.00;;
351;SDS011;164;50.784;6.496;2023-06-19T13:41:05;3.13;;;3.00;;
351;SDS011;164;50.784;6.496;2023-06-19T13:43:34;3.80;;;3.60;;
351;SDS011;164;50.784;6.496;2023-06-19T13:46:01;3.40;;;3.23;;
351;SDS011;164;50.784;6.496;2023-06-19T13:48:30;3.27;;;2.97;;
351;SDS011;164;50.784;6.496;2023-06-19T13:50:57;3.90;;;2.73;;
351;SDS011;164;50.784;6.496;2023-06-19T13:53:25;3.47;;;3.03;;
351;SDS011;164;50.784;6.496;2023-06-19T13:55:53;4.20;;;3.20;;
351;SDS011;164;50.784;6.496;2023-06-19T13:58:20;6.10;;;3.20;;
351;SDS011;164;50.784;6.496;2023-06-19T14:00:49;2.93;;;2.73;;
351;SDS011;164;50.784;6.496;2023-06-19T14:03:17;4.33;;;3.20;;
351;SDS011;164;50.784;6.496;2023-06-19T14:05:44;4.23;;;2.90;;
351;SDS011;164;50.784;6.496;2023-06-19T14:08:12;4.43;;;3.53;;
351;SDS011;164;50.784;6.496;2023-06-19T14:10:39;3.17;;;2.93;;
351;SDS011;164;50.784;6.496;2023-06-19T14:13:06;6.50;;;3.57;;
351;SDS011;164;50.784;6.496;2023-06-19T14:15:33;3.57;;;3.37;;
351;SDS011;164;50.784;6.496;2023-06-19T14:18:02;3.17;;;2.97;;
351;SDS011;164;50.784;6.496;2023-06-19T14:20:29;3.37;;;3.17;;
351;SDS011;164;50.784;6.496;2023-06-19T14:22:56;3.33;;;3.13;;
351;SDS011;164;50.784;6.496;2023-06-19T14:25:24;3.40;;;3.20;;
351;SDS011;164;50.784;6.496;2023-06-19T14:27:51;3.30;;;2.93;;
351;SDS011;164;50.784;6.496;2023-06-19T14:30:18;3.63;;;3.43;;
351;SDS011;164;50.784;6.496;2023-06-19T14:32:46;3.80;;;3.30;;
351;SDS011;164;50.784;6.496;2023-06-19T14:35:16;4.10;;;3.70;;
351;SDS011;164;50.784;6.496;2023-06-19T14:37:43;4.70;;;3.40;;
351;SDS011;164;50.784;6.496;2023-06-19T14:40:10;3.60;;;3.40;;
351;SDS011;164;50.784;6.496;2023-06-19T14:42:37;3.07;;;2.87;;
351;SDS011;164;50.784;6.496;2023-06-19T14:45:06;5.70;;;3.93;;
351;SDS011;164;50.784;6.496;2023-06-19T14:47:33;5.27;;;2.77;;
351;SDS011;164;50.784;6.496;2023-06-19T14:50:00;3.40;;;2.57;;
351;SDS011;164;50.784;6.496;2023-06-19T14:52:29;3.20;;;3.00;;
351;SDS011;164;50.784;6.496;2023-06-19T14:54:56;3.83;;;2.87;;
351;SDS011;164;50.784;6.496;2023-06-19T14:57:24;5.73;;;3.20;;
351;SDS011;164;50.784;6.496;2023-06-19T14:59:51;3.17;;;2.97;;
351;SDS011;164;50.784;6.496;2023-06-19T15:02:19;2.90;;;2.70;;
351;SDS011;164;50.784;6.496;2023-06-19T15:04:47;7.60;;;3.20;;
351;SDS011;164;50.784;6.496;2023-06-19T15:07:14;2.87;;;2.67;;
351;SDS011;164;50.784;6.496;2023-06-19T15:09:43;4.30;;;2.90;;
351;SDS011;164;50.784;6.496;2023-06-19T15:12:10;3.67;;;3.00;;
351;SDS011;164;50.784;6.496;2023-06-19T15:14:37;3.13;;;2.70;;
351;SDS011;164;50.784;6.496;2023-06-19T15:17:06;3.33;;;3.13;;
351;SDS011;164;50.784;6.496;2023-06-19T15:19:33;4.23;;;2.50;;
351;SDS011;164;50.784;6.496;2023-06-19T15:22:00;3.17;;;2.50;;
351;SDS011;164;50.784;6.496;2023-06-19T15:24:28;5.23;;;3.37;;
351;SDS011;164;50.784;6.496;2023-06-19T15:26:56;3.83;;;3.63;;
351;SDS011;164;50.784;6.496;2023-06-19T15:29:25;6.20;;;2.83;;
351;SDS011;164;50.784;6.496;2023-06-19T15:31:53;3.70;;;3.00;;
351;SDS011;164;50.784;6.496;2023-06-19T15:34:20;2.97;;;2.73;;
351;SDS011;164;50.784;6.496;2023-06-19T15:36:47;3.20;;;2.50;;
351;SDS011;164;50.784;6.496;2023-06-19T15:39:14;2.87;;;2.67;;
351;SDS011;164;50.784;6.496;2023-06-19T15:41:42;4.60;;;3.00;;
351;SDS011;164;50.784;6.496;2023-06-19T15:44:13;3.20;;;2.57;;
351;SDS011;164;50.784;6.496;2023-06-19T15:46:40;3.60;;;3.00;;
351;SDS011;164;50.784;6.496;2023-06-19T15:49:07;3.07;;;2.90;;